aviador You're here:

WBGB Decoded Metar

BINTULU in MALAYSIA
Report Time2017-06-24 17:00:00
UTC Time2017-06-24 17:25:07
Flight Rules vfr VFR
Wind140° at 06 kt
W.Decomp.*RWY 17: 5.2 kt HW 3 kt LCW
W.Rank140° ranks 6
Current wind is above 140° avg. (2.8)
Visibility9999 m
Phenomena:N/A
Clouds:Scattered 016 Hf
Broken 150 Hf
Expected CloudBase > 400 ft AGL from Temp-Dew spread
Ceiling15,000 ft
Temp25°C (ISA +10)
Dew Point24°C (94% RH)
QNH1010 hPa
Density Alt1,670 ft
Elevation16 ft
Report Wrong Elevation
Raw Report
METAR WBGB 241700Z 14006KT 9999 SCT016 BKN150 25/24 Q1010=

Extra information for WBGB:More info

Metar Taf Metar & Taf Last 4 Metars F.Rules Stats Wind Profile Meteogram Temp Stats Airport Information Weather charts Add Link Nearby VenuesMetar ALERT Operation Metar Decoded Social comments